Arapua, Brazil
Current Conditions -  °F | °C
As of 9:00 PM on Sunday 23 Nov 2014 (Local Time) from SBDN Reporting Station
Clear Clear  
Wind Chill: 75°   Ceiling: Unl
Heat Index: 75°   Visibility: 6mi
Dew Point: 68°   Wind: 7mph
Humidity: 78%   Direction: 80°E
Pressure: 29.88"   Gusts: NA
Location:  20.8°S, 52.05°W
Report Text: SBDN 240000Z 08006KT CAVOK 24/20 Q1012
Loading
Personal Weather Stations






























Interactive Weather Map New forecast layout! Learn more

10-Day Weather Forecast

Advertisements
Track Severe Weather on mobile